sensor_id;sensor_type;location;lat;lon;timestamp;P1;durP1;ratioP1;P2;durP2;ratioP2
57826;SDS011;43656;57.746;11.780;2023-08-24T00:01:12;11.23;;;1.60;;
57826;SDS011;43656;57.746;11.780;2023-08-24T00:03:38;8.55;;;1.60;;
57826;SDS011;43656;57.746;11.780;2023-08-24T00:06:04;6.40;;;1.50;;
57826;SDS011;43656;57.746;11.780;2023-08-24T00:08:31;6.38;;;1.38;;
57826;SDS011;43656;57.746;11.780;2023-08-24T00:10:56;8.13;;;1.58;;
57826;SDS011;43656;57.746;11.780;2023-08-24T00:13:22;4.45;;;1.15;;
57826;SDS011;43656;57.746;11.780;2023-08-24T00:15:47;5.97;;;1.38;;
57826;SDS011;43656;57.746;11.780;2023-08-24T00:18:13;7.75;;;2.00;;
57826;SDS011;43656;57.746;11.780;2023-08-24T00:20:38;13.23;;;1.40;;
57826;SDS011;43656;57.746;11.780;2023-08-24T00:23:04;9.88;;;2.03;;
57826;SDS011;43656;57.746;11.780;2023-08-24T00:25:30;6.72;;;1.67;;
57826;SDS011;43656;57.746;11.780;2023-08-24T00:27:56;7.13;;;1.58;;
57826;SDS011;43656;57.746;11.780;2023-08-24T00:30:23;8.55;;;1.48;;
57826;SDS011;43656;57.746;11.780;2023-08-24T00:32:48;8.30;;;1.58;;
57826;SDS011;43656;57.746;11.780;2023-08-24T00:35:14;7.00;;;1.65;;
57826;SDS011;43656;57.746;11.780;2023-08-24T00:37:40;7.90;;;1.55;;
57826;SDS011;43656;57.746;11.780;2023-08-24T00:40:06;8.13;;;1.83;;
57826;SDS011;43656;57.746;11.780;2023-08-24T00:42:36;8.45;;;1.80;;
57826;SDS011;43656;57.746;11.780;2023-08-24T00:45:09;14.77;;;1.90;;
57826;SDS011;43656;57.746;11.780;2023-08-24T00:47:36;13.95;;;2.35;;
57826;SDS011;43656;57.746;11.780;2023-08-24T00:50:05;10.23;;;2.10;;
57826;SDS011;43656;57.746;11.780;2023-08-24T00:52:31;11.23;;;2.10;;
57826;SDS011;43656;57.746;11.780;2023-08-24T00:54:58;11.50;;;2.30;;
57826;SDS011;43656;57.746;11.780;2023-08-24T00:57:26;13.05;;;2.47;;
57826;SDS011;43656;57.746;11.780;2023-08-24T00:59:52;14.38;;;2.10;;
57826;SDS011;43656;57.746;11.780;2023-08-24T01:02:17;15.90;;;2.33;;
57826;SDS011;43656;57.746;11.780;2023-08-24T01:04:43;13.27;;;2.10;;
57826;SDS011;43656;57.746;11.780;2023-08-24T01:07:11;15.02;;;2.05;;
57826;SDS011;43656;57.746;11.780;2023-08-24T01:09:37;17.55;;;2.45;;
57826;SDS011;43656;57.746;11.780;2023-08-24T01:17:46;21.45;;;2.70;;
57826;SDS011;43656;57.746;11.780;2023-08-24T01:20:15;13.27;;;2.83;;
57826;SDS011;43656;57.746;11.780;2023-08-24T01:22:52;10.80;;;2.13;;
57826;SDS011;43656;57.746;11.780;2023-08-24T01:28:02;17.10;;;2.50;;
57826;SDS011;43656;57.746;11.780;2023-08-24T01:30:30;14.25;;;2.65;;
57826;SDS011;43656;57.746;11.780;2023-08-24T01:32:56;17.02;;;2.67;;
57826;SDS011;43656;57.746;11.780;2023-08-24T01:35:22;15.45;;;2.38;;
57826;SDS011;43656;57.746;11.780;2023-08-24T01:37:47;13.48;;;2.30;;
57826;SDS011;43656;57.746;11.780;2023-08-24T01:40:15;18.60;;;2.40;;
57826;SDS011;43656;57.746;11.780;2023-08-24T01:43:03;17.15;;;2.95;;
57826;SDS011;43656;57.746;11.780;2023-08-24T01:45:31;16.02;;;2.70;;
57826;SDS011;43656;57.746;11.780;2023-08-24T01:48:01;16.92;;;2.67;;
57826;SDS011;43656;57.746;11.780;2023-08-24T01:50:28;12.77;;;2.40;;
57826;SDS011;43656;57.746;11.780;2023-08-24T01:52:55;16.15;;;2.10;;
57826;SDS011;43656;57.746;11.780;2023-08-24T01:55:21;25.17;;;2.40;;
57826;SDS011;43656;57.746;11.780;2023-08-24T01:57:47;15.50;;;2.63;;
57826;SDS011;43656;57.746;11.780;2023-08-24T02:00:13;19.42;;;2.78;;
57826;SDS011;43656;57.746;11.780;2023-08-24T02:02:39;15.93;;;2.30;;
57826;SDS011;43656;57.746;11.780;2023-08-24T02:05:05;15.88;;;2.95;;
57826;SDS011;43656;57.746;11.780;2023-08-24T02:07:31;13.13;;;2.55;;
57826;SDS011;43656;57.746;11.780;2023-08-24T02:09:57;18.30;;;2.90;;
57826;SDS011;43656;57.746;11.780;2023-08-24T02:12:23;21.33;;;3.10;;
57826;SDS011;43656;57.746;11.780;2023-08-24T02:14:48;13.50;;;3.20;;
57826;SDS011;43656;57.746;11.780;2023-08-24T02:17:14;18.35;;;2.58;;
57826;SDS011;43656;57.746;11.780;2023-08-24T02:19:39;16.05;;;2.28;;
57826;SDS011;43656;57.746;11.780;2023-08-24T02:22:06;21.13;;;3.42;;
57826;SDS011;43656;57.746;11.780;2023-08-24T02:24:32;12.27;;;2.25;;
57826;SDS011;43656;57.746;11.780;2023-08-24T02:26:57;14.60;;;2.35;;
57826;SDS011;43656;57.746;11.780;2023-08-24T02:29:23;11.82;;;2.15;;
57826;SDS011;43656;57.746;11.780;2023-08-24T02:31:51;16.65;;;2.50;;
57826;SDS011;43656;57.746;11.780;2023-08-24T02:34:17;16.42;;;2.15;;
57826;SDS011;43656;57.746;11.780;2023-08-24T02:36:43;15.77;;;3.00;;
57826;SDS011;43656;57.746;11.780;2023-08-24T02:39:09;16.10;;;2.63;;
57826;SDS011;43656;57.746;11.780;2023-08-24T02:41:35;13.38;;;2.20;;
57826;SDS011;43656;57.746;11.780;2023-08-24T02:44:01;15.55;;;2.80;;
57826;SDS011;43656;57.746;11.780;2023-08-24T02:46:27;14.40;;;2.70;;
57826;SDS011;43656;57.746;11.780;2023-08-24T02:48:52;11.95;;;2.80;;
57826;SDS011;43656;57.746;11.780;2023-08-24T02:51:21;15.95;;;2.28;;
57826;SDS011;43656;57.746;11.780;2023-08-24T02:53:47;18.42;;;2.80;;
57826;SDS011;43656;57.746;11.780;2023-08-24T02:56:13;14.63;;;2.63;;
57826;SDS011;43656;57.746;11.780;2023-08-24T02:58:38;15.40;;;2.90;;
57826;SDS011;43656;57.746;11.780;2023-08-24T03:01:07;23.30;;;3.65;;
57826;SDS011;43656;57.746;11.780;2023-08-24T03:03:35;22.70;;;2.95;;
57826;SDS011;43656;57.746;11.780;2023-08-24T03:06:06;14.15;;;2.47;;
57826;SDS011;43656;57.746;11.780;2023-08-24T03:08:32;19.75;;;2.60;;
57826;SDS011;43656;57.746;11.780;2023-08-24T03:10:59;15.40;;;2.60;;
57826;SDS011;43656;57.746;11.780;2023-08-24T03:13:25;19.45;;;3.17;;
57826;SDS011;43656;57.746;11.780;2023-08-24T03:15:51;18.15;;;2.92;;
57826;SDS011;43656;57.746;11.780;2023-08-24T03:18:20;18.42;;;2.80;;
57826;SDS011;43656;57.746;11.780;2023-08-24T03:20:46;16.75;;;2.83;;
57826;SDS011;43656;57.746;11.780;2023-08-24T03:23:12;16.08;;;2.78;;
57826;SDS011;43656;57.746;11.780;2023-08-24T03:25:40;16.30;;;2.63;;
57826;SDS011;43656;57.746;11.780;2023-08-24T03:28:07;18.98;;;2.83;;
57826;SDS011;43656;57.746;11.780;2023-08-24T03:30:34;24.30;;;3.25;;
57826;SDS011;43656;57.746;11.780;2023-08-24T03:33:00;16.25;;;2.75;;
57826;SDS011;43656;57.746;11.780;2023-08-24T03:35:28;16.80;;;2.97;;
57826;SDS011;43656;57.746;11.780;2023-08-24T03:37:54;18.17;;;2.75;;
57826;SDS011;43656;57.746;11.780;2023-08-24T03:40:20;20.42;;;3.00;;
57826;SDS011;43656;57.746;11.780;2023-08-24T03:42:45;18.00;;;2.85;;
57826;SDS011;43656;57.746;11.780;2023-08-24T03:45:11;20.38;;;3.42;;
57826;SDS011;43656;57.746;11.780;2023-08-24T03:47:36;18.80;;;2.83;;
57826;SDS011;43656;57.746;11.780;2023-08-24T03:50:02;21.45;;;2.85;;
57826;SDS011;43656;57.746;11.780;2023-08-24T03:52:27;20.52;;;3.40;;
57826;SDS011;43656;57.746;11.780;2023-08-24T03:54:53;23.50;;;3.15;;
57826;SDS011;43656;57.746;11.780;2023-08-24T03:57:18;16.48;;;2.97;;
57826;SDS011;43656;57.746;11.780;2023-08-24T03:59:44;20.80;;;3.00;;
57826;SDS011;43656;57.746;11.780;2023-08-24T04:02:09;19.85;;;2.90;;
57826;SDS011;43656;57.746;11.780;2023-08-24T04:04:36;21.77;;;3.42;;
57826;SDS011;43656;57.746;11.780;2023-08-24T04:07:01;14.57;;;3.20;;
57826;SDS011;43656;57.746;11.780;2023-08-24T04:09:28;18.98;;;2.70;;
57826;SDS011;43656;57.746;11.780;2023-08-24T04:11:54;21.20;;;3.17;;
57826;SDS011;43656;57.746;11.780;2023-08-24T04:14:19;21.58;;;3.72;;
57826;SDS011;43656;57.746;11.780;2023-08-24T04:16:45;24.92;;;3.25;;
57826;SDS011;43656;57.746;11.780;2023-08-24T04:19:10;17.48;;;2.75;;
57826;SDS011;43656;57.746;11.780;2023-08-24T04:21:35;14.82;;;2.97;;
57826;SDS011;43656;57.746;11.780;2023-08-24T04:24:01;14.38;;;2.90;;
57826;SDS011;43656;57.746;11.780;2023-08-24T04:26:27;19.35;;;3.10;;
57826;SDS011;43656;57.746;11.780;2023-08-24T04:28:52;15.45;;;2.67;;
57826;SDS011;43656;57.746;11.780;2023-08-24T04:31:18;22.20;;;3.05;;
57826;SDS011;43656;57.746;11.780;2023-08-24T04:33:43;19.48;;;3.08;;
57826;SDS011;43656;57.746;11.780;2023-08-24T04:36:09;17.00;;;2.70;;
57826;SDS011;43656;57.746;11.780;2023-08-24T04:38:34;19.23;;;2.88;;
57826;SDS011;43656;57.746;11.780;2023-08-24T04:41:00;17.60;;;2.65;;
57826;SDS011;43656;57.746;11.780;2023-08-24T04:43:25;18.33;;;2.97;;
57826;SDS011;43656;57.746;11.780;2023-08-24T04:45:52;17.33;;;3.10;;
57826;SDS011;43656;57.746;11.780;2023-08-24T04:48:19;19.25;;;2.97;;
57826;SDS011;43656;57.746;11.780;2023-08-24T04:50:48;16.63;;;3.05;;
57826;SDS011;43656;57.746;11.780;2023-08-24T04:53:15;17.23;;;3.17;;
57826;SDS011;43656;57.746;11.780;2023-08-24T04:55:43;19.17;;;2.80;;
57826;SDS011;43656;57.746;11.780;2023-08-24T04:58:09;20.42;;;2.42;;
57826;SDS011;43656;57.746;11.780;2023-08-24T05:00:35;14.23;;;2.70;;
57826;SDS011;43656;57.746;11.780;2023-08-24T05:03:01;17.98;;;2.42;;
57826;SDS011;43656;57.746;11.780;2023-08-24T05:05:31;16.40;;;3.10;;
57826;SDS011;43656;57.746;11.780;2023-08-24T05:07:58;20.20;;;2.83;;
57826;SDS011;43656;57.746;11.780;2023-08-24T05:10:25;17.60;;;2.80;;
57826;SDS011;43656;57.746;11.780;2023-08-24T05:12:51;15.95;;;2.47;;
57826;SDS011;43656;57.746;11.780;2023-08-24T05:15:16;19.65;;;2.72;;
57826;SDS011;43656;57.746;11.780;2023-08-24T05:17:42;15.48;;;2.55;;
57826;SDS011;43656;57.746;11.780;2023-08-24T05:20:08;19.73;;;3.03;;
57826;SDS011;43656;57.746;11.780;2023-08-24T05:22:35;13.95;;;2.42;;
57826;SDS011;43656;57.746;11.780;2023-08-24T05:25:01;18.48;;;2.95;;
57826;SDS011;43656;57.746;11.780;2023-08-24T05:27:27;18.08;;;2.63;;
57826;SDS011;43656;57.746;11.780;2023-08-24T05:29:52;18.50;;;2.85;;
57826;SDS011;43656;57.746;11.780;2023-08-24T05:32:18;13.95;;;2.83;;
57826;SDS011;43656;57.746;11.780;2023-08-24T05:34:44;17.20;;;2.40;;
57826;SDS011;43656;57.746;11.780;2023-08-24T05:37:10;21.08;;;2.78;;
57826;SDS011;43656;57.746;11.780;2023-08-24T05:39:36;15.10;;;2.90;;
57826;SDS011;43656;57.746;11.780;2023-08-24T05:42:01;18.20;;;2.90;;
57826;SDS011;43656;57.746;11.780;2023-08-24T05:44:26;28.27;;;3.72;;
57826;SDS011;43656;57.746;11.780;2023-08-24T05:46:52;19.95;;;3.00;;
57826;SDS011;43656;57.746;11.780;2023-08-24T05:49:17;16.08;;;2.85;;
57826;SDS011;43656;57.746;11.780;2023-08-24T05:51:43;15.10;;;2.60;;
57826;SDS011;43656;57.746;11.780;2023-08-24T05:54:08;14.48;;;2.65;;
57826;SDS011;43656;57.746;11.780;2023-08-24T05:56:34;14.38;;;2.47;;
57826;SDS011;43656;57.746;11.780;2023-08-24T05:58:59;20.00;;;2.83;;
57826;SDS011;43656;57.746;11.780;2023-08-24T06:01:25;20.63;;;2.58;;
57826;SDS011;43656;57.746;11.780;2023-08-24T06:03:51;13.15;;;2.38;;
57826;SDS011;43656;57.746;11.780;2023-08-24T06:06:16;14.82;;;2.80;;
57826;SDS011;43656;57.746;11.780;2023-08-24T06:08:42;12.75;;;2.80;;
57826;SDS011;43656;57.746;11.780;2023-08-24T06:11:07;14.63;;;2.42;;
57826;SDS011;43656;57.746;11.780;2023-08-24T06:13:33;22.20;;;3.40;;
57826;SDS011;43656;57.746;11.780;2023-08-24T06:15:58;15.32;;;2.58;;
57826;SDS011;43656;57.746;11.780;2023-08-24T06:18:24;13.88;;;2.50;;
57826;SDS011;43656;57.746;11.780;2023-08-24T06:20:49;21.88;;;3.42;;
57826;SDS011;43656;57.746;11.780;2023-08-24T06:23:18;14.52;;;2.20;;
57826;SDS011;43656;57.746;11.780;2023-08-24T06:25:44;13.57;;;2.78;;
57826;SDS011;43656;57.746;11.780;2023-08-24T06:28:11;11.90;;;2.13;;
57826;SDS011;43656;57.746;11.780;2023-08-24T06:30:40;15.85;;;2.75;;
57826;SDS011;43656;57.746;11.780;2023-08-24T06:33:08;17.17;;;2.50;;
57826;SDS011;43656;57.746;11.780;2023-08-24T06:35:35;17.08;;;2.92;;
57826;SDS011;43656;57.746;11.780;2023-08-24T06:38:02;16.02;;;2.47;;
57826;SDS011;43656;57.746;11.780;2023-08-24T06:40:28;11.95;;;2.45;;
57826;SDS011;43656;57.746;11.780;2023-08-24T06:42:54;14.18;;;2.58;;
57826;SDS011;43656;57.746;11.780;2023-08-24T06:45:20;14.38;;;2.50;;
57826;SDS011;43656;57.746;11.780;2023-08-24T06:47:45;12.02;;;2.38;;
57826;SDS011;43656;57.746;11.780;2023-08-24T06:50:11;13.57;;;2.33;;
57826;SDS011;43656;57.746;11.780;2023-08-24T06:52:36;11.82;;;2.10;;
57826;SDS011;43656;57.746;11.780;2023-08-24T06:55:02;16.48;;;2.30;;
57826;SDS011;43656;57.746;11.780;2023-08-24T06:57:28;13.30;;;2.60;;
57826;SDS011;43656;57.746;11.780;2023-08-24T06:59:53;13.27;;;2.85;;
57826;SDS011;43656;57.746;11.780;2023-08-24T07:02:19;15.60;;;2.40;;
57826;SDS011;43656;57.746;11.780;2023-08-24T07:04:44;12.27;;;2.30;;
57826;SDS011;43656;57.746;11.780;2023-08-24T07:07:10;12.77;;;2.17;;
57826;SDS011;43656;57.746;11.780;2023-08-24T07:09:35;13.85;;;3.55;;
57826;SDS011;43656;57.746;11.780;2023-08-24T07:12:01;13.27;;;2.53;;
57826;SDS011;43656;57.746;11.780;2023-08-24T07:14:28;18.48;;;2.60;;
57826;SDS011;43656;57.746;11.780;2023-08-24T07:16:54;12.68;;;2.60;;
57826;SDS011;43656;57.746;11.780;2023-08-24T07:19:19;9.57;;;2.10;;
57826;SDS011;43656;57.746;11.780;2023-08-24T07:21:45;9.73;;;1.80;;
57826;SDS011;43656;57.746;11.780;2023-08-24T07:24:11;14.07;;;2.53;;
57826;SDS011;43656;57.746;11.780;2023-08-24T07:26:36;17.55;;;2.35;;
57826;SDS011;43656;57.746;11.780;2023-08-24T07:29:02;12.23;;;2.67;;
57826;SDS011;43656;57.746;11.780;2023-08-24T07:31:27;12.35;;;2.08;;
57826;SDS011;43656;57.746;11.780;2023-08-24T07:33:53;14.45;;;2.55;;
57826;SDS011;43656;57.746;11.780;2023-08-24T07:36:18;11.60;;;2.25;;
57826;SDS011;43656;57.746;11.780;2023-08-24T07:38:44;12.90;;;2.35;;
57826;SDS011;43656;57.746;11.780;2023-08-24T07:41:12;11.93;;;2.20;;
57826;SDS011;43656;57.746;11.780;2023-08-24T07:43:37;11.10;;;2.00;;
57826;SDS011;43656;57.746;11.780;2023-08-24T07:46:03;14.48;;;2.55;;
57826;SDS011;43656;57.746;11.780;2023-08-24T07:48:29;12.07;;;2.10;;
57826;SDS011;43656;57.746;11.780;2023-08-24T07:50:54;13.55;;;2.47;;
57826;SDS011;43656;57.746;11.780;2023-08-24T07:53:20;8.65;;;1.90;;
57826;SDS011;43656;57.746;11.780;2023-08-24T07:55:46;15.63;;;2.45;;
57826;SDS011;43656;57.746;11.780;2023-08-24T07:58:12;9.65;;;1.95;;
57826;SDS011;43656;57.746;11.780;2023-08-24T08:00:37;10.70;;;2.15;;
57826;SDS011;43656;57.746;11.780;2023-08-24T08:03:03;11.02;;;2.25;;
57826;SDS011;43656;57.746;11.780;2023-08-24T08:05:28;9.45;;;1.92;;
57826;SDS011;43656;57.746;11.780;2023-08-24T08:07:54;11.50;;;2.45;;
57826;SDS011;43656;57.746;11.780;2023-08-24T08:10:19;13.15;;;1.85;;
57826;SDS011;43656;57.746;11.780;2023-08-24T08:12:46;11.35;;;2.00;;
57826;SDS011;43656;57.746;11.780;2023-08-24T08:15:12;8.75;;;1.58;;
57826;SDS011;43656;57.746;11.780;2023-08-24T08:17:38;12.38;;;1.95;;
57826;SDS011;43656;57.746;11.780;2023-08-24T08:20:03;13.27;;;2.25;;
57826;SDS011;43656;57.746;11.780;2023-08-24T08:22:29;12.65;;;1.98;;
57826;SDS011;43656;57.746;11.780;2023-08-24T08:24:55;10.60;;;1.92;;
57826;SDS011;43656;57.746;11.780;2023-08-24T08:27:23;11.98;;;1.90;;
57826;SDS011;43656;57.746;11.780;2023-08-24T08:29:49;9.63;;;1.80;;
57826;SDS011;43656;57.746;11.780;2023-08-24T08:32:15;10.52;;;2.05;;
57826;SDS011;43656;57.746;11.780;2023-08-24T08:34:40;12.13;;;2.30;;
57826;SDS011;43656;57.746;11.780;2023-08-24T08:37:05;10.32;;;1.95;;
57826;SDS011;43656;57.746;11.780;2023-08-24T08:39:34;13.20;;;2.17;;
57826;SDS011;43656;57.746;11.780;2023-08-24T08:42:00;14.50;;;2.10;;
57826;SDS011;43656;57.746;11.780;2023-08-24T08:44:29;10.57;;;2.20;;
57826;SDS011;43656;57.746;11.780;2023-08-24T08:46:59;11.05;;;2.00;;
57826;SDS011;43656;57.746;11.780;2023-08-24T08:49:25;9.35;;;2.00;;
57826;SDS011;43656;57.746;11.780;2023-08-24T08:51:51;9.07;;;2.00;;
57826;SDS011;43656;57.746;11.780;2023-08-24T08:54:17;10.02;;;1.80;;
57826;SDS011;43656;57.746;11.780;2023-08-24T08:56:43;10.88;;;2.00;;
57826;SDS011;43656;57.746;11.780;2023-08-24T08:59:08;12.50;;;2.30;;
57826;SDS011;43656;57.746;11.780;2023-08-24T09:01:37;8.93;;;1.83;;
57826;SDS011;43656;57.746;11.780;2023-08-24T09:04:03;9.45;;;2.10;;
57826;SDS011;43656;57.746;11.780;2023-08-24T09:06:31;11.65;;;2.20;;
57826;SDS011;43656;57.746;11.780;2023-08-24T09:08:56;13.05;;;2.22;;
57826;SDS011;43656;57.746;11.780;2023-08-24T09:11:22;13.30;;;2.25;;
57826;SDS011;43656;57.746;11.780;2023-08-24T09:13:48;9.82;;;2.00;;
57826;SDS011;43656;57.746;11.780;2023-08-24T09:16:14;11.80;;;2.35;;
57826;SDS011;43656;57.746;11.780;2023-08-24T09:18:41;10.07;;;1.90;;
57826;SDS011;43656;57.746;11.780;2023-08-24T09:21:13;9.05;;;2.00;;
57826;SDS011;43656;57.746;11.780;2023-08-24T09:24:01;7.60;;;1.65;;
57826;SDS011;43656;57.746;11.780;2023-08-24T09:26:31;11.48;;;2.10;;
57826;SDS011;43656;57.746;11.780;2023-08-24T09:28:59;11.43;;;2.03;;
57826;SDS011;43656;57.746;11.780;2023-08-24T09:31:34;9.77;;;1.58;;
57826;SDS011;43656;57.746;11.780;2023-08-24T09:34:03;9.00;;;1.52;;
57826;SDS011;43656;57.746;11.780;2023-08-24T09:36:33;12.40;;;2.05;;
57826;SDS011;43656;57.746;11.780;2023-08-24T09:38:59;11.10;;;1.80;;
57826;SDS011;43656;57.746;11.780;2023-08-24T09:41:41;11.73;;;1.83;;
57826;SDS011;43656;57.746;11.780;2023-08-24T09:44:09;10.40;;;1.90;;
57826;SDS011;43656;57.746;11.780;2023-08-24T09:46:35;7.93;;;1.70;;
57826;SDS011;43656;57.746;11.780;2023-08-24T09:49:07;8.27;;;2.05;;
57826;SDS011;43656;57.746;11.780;2023-08-24T09:51:34;10.35;;;1.88;;
57826;SDS011;43656;57.746;11.780;2023-08-24T09:54:05;8.98;;;1.98;;
57826;SDS011;43656;57.746;11.780;2023-08-24T09:56:33;11.55;;;1.60;;
57826;SDS011;43656;57.746;11.780;2023-08-24T09:59:03;10.02;;;2.00;;
57826;SDS011;43656;57.746;11.780;2023-08-24T10:01:35;8.55;;;1.50;;
57826;SDS011;43656;57.746;11.780;2023-08-24T10:04:01;9.40;;;1.73;;
57826;SDS011;43656;57.746;11.780;2023-08-24T10:06:30;6.90;;;1.48;;
57826;SDS011;43656;57.746;11.780;2023-08-24T10:08:58;8.50;;;1.75;;
57826;SDS011;43656;57.746;11.780;2023-08-24T10:11:29;7.28;;;1.80;;
57826;SDS011;43656;57.746;11.780;2023-08-24T10:14:03;9.68;;;1.60;;
57826;SDS011;43656;57.746;11.780;2023-08-24T10:16:33;6.18;;;1.58;;
57826;SDS011;43656;57.746;11.780;2023-08-24T10:19:00;6.60;;;1.40;;
57826;SDS011;43656;57.746;11.780;2023-08-24T10:21:27;6.25;;;1.50;;
57826;SDS011;43656;57.746;11.780;2023-08-24T10:23:54;9.68;;;1.80;;
57826;SDS011;43656;57.746;11.780;2023-08-24T10:26:22;6.07;;;1.33;;
57826;SDS011;43656;57.746;11.780;2023-08-24T10:28:49;7.22;;;1.70;;
57826;SDS011;43656;57.746;11.780;2023-08-24T10:31:16;6.68;;;1.70;;
57826;SDS011;43656;57.746;11.780;2023-08-24T10:33:42;6.35;;;1.40;;
57826;SDS011;43656;57.746;11.780;2023-08-24T10:36:10;7.90;;;1.63;;
57826;SDS011;43656;57.746;11.780;2023-08-24T10:38:42;11.43;;;1.67;;
57826;SDS011;43656;57.746;11.780;2023-08-24T10:41:08;7.38;;;1.50;;
57826;SDS011;43656;57.746;11.780;2023-08-24T10:43:37;11.38;;;1.40;;
57826;SDS011;43656;57.746;11.780;2023-08-24T10:46:03;7.03;;;1.63;;
57826;SDS011;43656;57.746;11.780;2023-08-24T10:48:30;6.43;;;1.48;;
57826;SDS011;43656;57.746;11.780;2023-08-24T10:51:17;11.90;;;2.17;;
57826;SDS011;43656;57.746;11.780;2023-08-24T10:53:53;9.15;;;1.85;;
57826;SDS011;43656;57.746;11.780;2023-08-24T10:56:20;7.60;;;1.40;;
57826;SDS011;43656;57.746;11.780;2023-08-24T10:59:09;10.37;;;1.93;;
57826;SDS011;43656;57.746;11.780;2023-08-24T11:01:42;11.00;;;1.45;;
57826;SDS011;43656;57.746;11.780;2023-08-24T11:04:19;9.68;;;1.70;;
57826;SDS011;43656;57.746;11.780;2023-08-24T11:06:55;6.85;;;1.58;;
57826;SDS011;43656;57.746;11.780;2023-08-24T11:09:26;4.60;;;1.10;;
57826;SDS011;43656;57.746;11.780;2023-08-24T11:14:48;6.55;;;1.50;;
57826;SDS011;43656;57.746;11.780;2023-08-24T11:17:19;8.13;;;1.67;;
57826;SDS011;43656;57.746;11.780;2023-08-24T11:19:52;5.75;;;1.10;;
57826;SDS011;43656;57.746;11.780;2023-08-24T11:22:19;8.40;;;1.65;;
57826;SDS011;43656;57.746;11.780;2023-08-24T11:24:48;5.75;;;1.55;;
57826;SDS011;43656;57.746;11.780;2023-08-24T11:27:14;5.35;;;1.33;;
57826;SDS011;43656;57.746;11.780;2023-08-24T11:29:41;6.85;;;1.67;;
57826;SDS011;43656;57.746;11.780;2023-08-24T11:32:06;7.43;;;1.60;;
57826;SDS011;43656;57.746;11.780;2023-08-24T11:34:33;6.13;;;1.30;;
57826;SDS011;43656;57.746;11.780;2023-08-24T11:36:59;6.75;;;1.73;;
57826;SDS011;43656;57.746;11.780;2023-08-24T11:39:25;7.05;;;1.48;;
57826;SDS011;43656;57.746;11.780;2023-08-24T11:42:00;11.43;;;2.05;;
57826;SDS011;43656;57.746;11.780;2023-08-24T11:44:26;6.90;;;1.40;;
57826;SDS011;43656;57.746;11.780;2023-08-24T11:46:52;10.10;;;1.40;;
57826;SDS011;43656;57.746;11.780;2023-08-24T11:49:17;6.25;;;1.25;;
57826;SDS011;43656;57.746;11.780;2023-08-24T11:51:43;6.35;;;1.60;;
57826;SDS011;43656;57.746;11.780;2023-08-24T11:54:08;5.18;;;1.27;;
57826;SDS011;43656;57.746;11.780;2023-08-24T11:56:41;6.07;;;1.23;;
57826;SDS011;43656;57.746;11.780;2023-08-24T11:59:10;6.43;;;1.60;;
57826;SDS011;43656;57.746;11.780;2023-08-24T12:01:38;8.27;;;1.60;;
57826;SDS011;43656;57.746;11.780;2023-08-24T12:04:05;8.27;;;1.50;;
57826;SDS011;43656;57.746;11.780;2023-08-24T12:06:31;4.78;;;1.20;;
57826;SDS011;43656;57.746;11.780;2023-08-24T12:08:56;6.50;;;1.38;;
57826;SDS011;43656;57.746;11.780;2023-08-24T12:11:22;5.80;;;1.10;;
57826;SDS011;43656;57.746;11.780;2023-08-24T12:13:50;5.15;;;1.38;;
57826;SDS011;43656;57.746;11.780;2023-08-24T12:16:17;5.43;;;1.52;;
57826;SDS011;43656;57.746;11.780;2023-08-24T12:21:17;6.50;;;1.40;;
57826;SDS011;43656;57.746;11.780;2023-08-24T12:23:44;6.88;;;1.40;;
57826;SDS011;43656;57.746;11.780;2023-08-24T12:26:17;9.27;;;1.67;;
57826;SDS011;43656;57.746;11.780;2023-08-24T12:28:43;6.82;;;1.30;;
57826;SDS011;43656;57.746;11.780;2023-08-24T12:31:08;7.25;;;1.50;;
57826;SDS011;43656;57.746;11.780;2023-08-24T12:33:34;5.60;;;1.70;;
57826;SDS011;43656;57.746;11.780;2023-08-24T12:35:59;6.95;;;1.27;;
57826;SDS011;43656;57.746;11.780;2023-08-24T12:38:25;7.15;;;1.63;;
57826;SDS011;43656;57.746;11.780;2023-08-24T12:40:51;7.80;;;1.45;;
57826;SDS011;43656;57.746;11.780;2023-08-24T12:43:18;7.22;;;1.40;;
57826;SDS011;43656;57.746;11.780;2023-08-24T12:45:43;4.72;;;1.25;;
57826;SDS011;43656;57.746;11.780;2023-08-24T12:48:09;7.13;;;1.50;;
57826;SDS011;43656;57.746;11.780;2023-08-24T12:50:37;7.28;;;1.38;;
57826;SDS011;43656;57.746;11.780;2023-08-24T12:53:03;7.35;;;1.30;;
57826;SDS011;43656;57.746;11.780;2023-08-24T12:55:31;4.40;;;1.08;;
57826;SDS011;43656;57.746;11.780;2023-08-24T12:57:57;11.63;;;1.30;;
57826;SDS011;43656;57.746;11.780;2023-08-24T13:00:22;8.02;;;1.33;;
57826;SDS011;43656;57.746;11.780;2023-08-24T13:02:48;5.50;;;1.52;;
57826;SDS011;43656;57.746;11.780;2023-08-24T13:05:14;6.65;;;1.40;;
57826;SDS011;43656;57.746;11.780;2023-08-24T13:07:39;4.65;;;1.30;;
57826;SDS011;43656;57.746;11.780;2023-08-24T13:10:05;9.80;;;1.42;;
57826;SDS011;43656;57.746;11.780;2023-08-24T13:12:32;8.60;;;1.20;;
57826;SDS011;43656;57.746;11.780;2023-08-24T13:14:58;6.40;;;1.40;;
57826;SDS011;43656;57.746;11.780;2023-08-24T13:17:23;11.55;;;1.65;;
57826;SDS011;43656;57.746;11.780;2023-08-24T13:19:49;6.47;;;1.38;;
57826;SDS011;43656;57.746;11.780;2023-08-24T13:22:14;4.20;;;1.25;;
57826;SDS011;43656;57.746;11.780;2023-08-24T13:24:40;4.15;;;1.13;;
57826;SDS011;43656;57.746;11.780;2023-08-24T13:27:08;4.72;;;1.25;;
57826;SDS011;43656;57.746;11.780;2023-08-24T13:29:38;8.63;;;1.25;;
57826;SDS011;43656;57.746;11.780;2023-08-24T13:32:05;6.95;;;1.25;;
57826;SDS011;43656;57.746;11.780;2023-08-24T13:34:32;6.60;;;1.50;;
57826;SDS011;43656;57.746;11.780;2023-08-24T13:36:57;5.68;;;1.30;;
57826;SDS011;43656;57.746;11.780;2023-08-24T13:39:25;3.90;;;1.08;;
57826;SDS011;43656;57.746;11.780;2023-08-24T13:41:53;4.57;;;1.30;;
57826;SDS011;43656;57.746;11.780;2023-08-24T13:44:18;7.38;;;1.40;;
57826;SDS011;43656;57.746;11.780;2023-08-24T13:46:44;5.75;;;1.15;;
57826;SDS011;43656;57.746;11.780;2023-08-24T13:49:09;5.07;;;1.20;;
57826;SDS011;43656;57.746;11.780;2023-08-24T13:51:35;5.03;;;1.20;;
57826;SDS011;43656;57.746;11.780;2023-08-24T13:54:00;7.07;;;1.33;;
57826;SDS011;43656;57.746;11.780;2023-08-24T13:56:26;7.28;;;1.20;;
57826;SDS011;43656;57.746;11.780;2023-08-24T13:58:51;4.43;;;1.10;;
57826;SDS011;43656;57.746;11.780;2023-08-24T14:01:16;5.07;;;0.90;;
57826;SDS011;43656;57.746;11.780;2023-08-24T14:03:42;3.30;;;0.90;;
57826;SDS011;43656;57.746;11.780;2023-08-24T14:06:08;7.10;;;1.20;;
57826;SDS011;43656;57.746;11.780;2023-08-24T14:08:34;5.90;;;1.23;;
57826;SDS011;43656;57.746;11.780;2023-08-24T14:10:59;4.47;;;1.05;;
57826;SDS011;43656;57.746;11.780;2023-08-24T14:13:25;3.38;;;0.95;;
57826;SDS011;43656;57.746;11.780;2023-08-24T14:15:50;3.58;;;1.00;;
57826;SDS011;43656;57.746;11.780;2023-08-24T14:18:16;4.13;;;1.20;;
57826;SDS011;43656;57.746;11.780;2023-08-24T14:20:42;5.60;;;1.05;;
57826;SDS011;43656;57.746;11.780;2023-08-24T14:23:08;5.10;;;1.02;;
57826;SDS011;43656;57.746;11.780;2023-08-24T14:25:34;6.05;;;1.10;;
57826;SDS011;43656;57.746;11.780;2023-08-24T14:27:59;4.68;;;1.15;;
57826;SDS011;43656;57.746;11.780;2023-08-24T14:30:25;4.65;;;1.05;;
57826;SDS011;43656;57.746;11.780;2023-08-24T14:32:51;7.28;;;1.27;;
57826;SDS011;43656;57.746;11.780;2023-08-24T14:35:16;5.78;;;1.23;;
57826;SDS011;43656;57.746;11.780;2023-08-24T14:37:42;5.55;;;1.42;;